sensor_id;sensor_type;location;lat;lon;timestamp;P1;durP1;ratioP1;P2;durP2;ratioP2
69841;SDS011;57138;51.326;-0.068;2023-04-06T00:00:38;34.13;;;19.00;;
69841;SDS011;57138;51.326;-0.068;2023-04-06T00:03:04;30.60;;;17.40;;
69841;SDS011;57138;51.326;-0.068;2023-04-06T00:05:29;32.22;;;18.15;;
69841;SDS011;57138;51.326;-0.068;2023-04-06T00:07:56;32.00;;;17.67;;
69841;SDS011;57138;51.326;-0.068;2023-04-06T00:10:23;29.33;;;17.20;;
69841;SDS011;57138;51.326;-0.068;2023-04-06T00:12:48;28.25;;;14.98;;
69841;SDS011;57138;51.326;-0.068;2023-04-06T00:15:14;26.55;;;14.77;;
69841;SDS011;57138;51.326;-0.068;2023-04-06T00:17:39;22.08;;;12.43;;
69841;SDS011;57138;51.326;-0.068;2023-04-06T00:20:05;21.60;;;13.02;;
69841;SDS011;57138;51.326;-0.068;2023-04-06T00:22:31;19.88;;;12.52;;
69841;SDS011;57138;51.326;-0.068;2023-04-06T00:24:57;20.50;;;12.13;;
69841;SDS011;57138;51.326;-0.068;2023-04-06T00:27:22;18.20;;;10.50;;
69841;SDS011;57138;51.326;-0.068;2023-04-06T00:29:47;17.63;;;10.85;;
69841;SDS011;57138;51.326;-0.068;2023-04-06T00:32:13;15.98;;;9.75;;
69841;SDS011;57138;51.326;-0.068;2023-04-06T00:34:38;17.67;;;9.88;;
69841;SDS011;57138;51.326;-0.068;2023-04-06T00:37:04;15.13;;;9.68;;
69841;SDS011;57138;51.326;-0.068;2023-04-06T00:39:29;15.75;;;9.60;;
69841;SDS011;57138;51.326;-0.068;2023-04-06T00:41:55;14.98;;;9.00;;
69841;SDS011;57138;51.326;-0.068;2023-04-06T00:44:21;16.40;;;9.43;;
69841;SDS011;57138;51.326;-0.068;2023-04-06T00:46:47;15.10;;;7.55;;
69841;SDS011;57138;51.326;-0.068;2023-04-06T00:49:12;13.55;;;7.63;;
69841;SDS011;57138;51.326;-0.068;2023-04-06T00:51:38;15.88;;;8.95;;
69841;SDS011;57138;51.326;-0.068;2023-04-06T00:54:03;13.07;;;7.70;;
69841;SDS011;57138;51.326;-0.068;2023-04-06T00:56:29;14.27;;;8.43;;
69841;SDS011;57138;51.326;-0.068;2023-04-06T00:58:55;12.10;;;7.97;;
69841;SDS011;57138;51.326;-0.068;2023-04-06T01:01:20;11.40;;;6.82;;
69841;SDS011;57138;51.326;-0.068;2023-04-06T01:03:46;12.07;;;7.45;;
69841;SDS011;57138;51.326;-0.068;2023-04-06T01:06:14;12.93;;;8.23;;
69841;SDS011;57138;51.326;-0.068;2023-04-06T01:08:39;10.02;;;7.03;;
69841;SDS011;57138;51.326;-0.068;2023-04-06T01:11:05;10.57;;;6.85;;
69841;SDS011;57138;51.326;-0.068;2023-04-06T01:13:30;10.55;;;7.45;;
69841;SDS011;57138;51.326;-0.068;2023-04-06T01:15:56;12.27;;;7.18;;
69841;SDS011;57138;51.326;-0.068;2023-04-06T01:18:28;12.20;;;7.47;;
69841;SDS011;57138;51.326;-0.068;2023-04-06T01:20:54;13.40;;;7.78;;
69841;SDS011;57138;51.326;-0.068;2023-04-06T01:23:20;11.07;;;7.53;;
69841;SDS011;57138;51.326;-0.068;2023-04-06T01:25:45;11.68;;;7.40;;
69841;SDS011;57138;51.326;-0.068;2023-04-06T01:28:12;10.68;;;7.30;;
69841;SDS011;57138;51.326;-0.068;2023-04-06T01:30:38;11.65;;;7.47;;
69841;SDS011;57138;51.326;-0.068;2023-04-06T01:33:04;12.02;;;7.25;;
69841;SDS011;57138;51.326;-0.068;2023-04-06T01:35:30;11.02;;;6.10;;
69841;SDS011;57138;51.326;-0.068;2023-04-06T01:37:55;8.68;;;5.70;;
69841;SDS011;57138;51.326;-0.068;2023-04-06T01:40:21;8.65;;;5.32;;
69841;SDS011;57138;51.326;-0.068;2023-04-06T01:42:46;9.15;;;5.57;;
69841;SDS011;57138;51.326;-0.068;2023-04-06T01:45:12;7.95;;;4.85;;
69841;SDS011;57138;51.326;-0.068;2023-04-06T01:47:38;8.40;;;4.80;;
69841;SDS011;57138;51.326;-0.068;2023-04-06T01:50:04;10.63;;;5.40;;
69841;SDS011;57138;51.326;-0.068;2023-04-06T01:52:31;7.60;;;4.32;;
69841;SDS011;57138;51.326;-0.068;2023-04-06T01:54:59;8.23;;;5.22;;
69841;SDS011;57138;51.326;-0.068;2023-04-06T01:57:24;7.57;;;4.65;;
69841;SDS011;57138;51.326;-0.068;2023-04-06T01:59:50;7.28;;;4.53;;
69841;SDS011;57138;51.326;-0.068;2023-04-06T02:02:16;7.85;;;4.72;;
69841;SDS011;57138;51.326;-0.068;2023-04-06T02:04:42;6.20;;;4.15;;
69841;SDS011;57138;51.326;-0.068;2023-04-06T02:07:10;7.65;;;4.68;;
69841;SDS011;57138;51.326;-0.068;2023-04-06T02:09:36;7.72;;;5.10;;
69841;SDS011;57138;51.326;-0.068;2023-04-06T02:12:01;8.57;;;4.18;;
69841;SDS011;57138;51.326;-0.068;2023-04-06T02:14:27;6.13;;;3.70;;
69841;SDS011;57138;51.326;-0.068;2023-04-06T02:16:54;6.85;;;4.20;;
69841;SDS011;57138;51.326;-0.068;2023-04-06T02:19:22;0.10;;;0.10;;
69841;SDS011;57138;51.326;-0.068;2023-04-06T02:21:47;0.10;;;0.10;;
69841;SDS011;57138;51.326;-0.068;2023-04-06T02:24:13;0.20;;;0.20;;
69841;SDS011;57138;51.326;-0.068;2023-04-06T02:26:39;0.20;;;0.20;;
69841;SDS011;57138;51.326;-0.068;2023-04-06T02:29:04;0.10;;;0.10;;
69841;SDS011;57138;51.326;-0.068;2023-04-06T02:31:30;0.20;;;0.20;;
69841;SDS011;57138;51.326;-0.068;2023-04-06T02:33:56;0.10;;;0.10;;
69841;SDS011;57138;51.326;-0.068;2023-04-06T02:36:21;0.13;;;0.13;;
69841;SDS011;57138;51.326;-0.068;2023-04-06T02:38:47;0.10;;;0.10;;
69841;SDS011;57138;51.326;-0.068;2023-04-06T02:41:16;0.10;;;0.10;;
69841;SDS011;57138;51.326;-0.068;2023-04-06T02:43:42;0.10;;;0.10;;
69841;SDS011;57138;51.326;-0.068;2023-04-06T02:46:07;0.20;;;0.20;;
69841;SDS011;57138;51.326;-0.068;2023-04-06T02:48:33;0.20;;;0.20;;
69841;SDS011;57138;51.326;-0.068;2023-04-06T02:51:01;0.20;;;0.20;;
69841;SDS011;57138;51.326;-0.068;2023-04-06T02:53:28;0.20;;;0.20;;
69841;SDS011;57138;51.326;-0.068;2023-04-06T02:55:56;0.20;;;0.20;;
69841;SDS011;57138;51.326;-0.068;2023-04-06T02:58:22;0.15;;;0.15;;
69841;SDS011;57138;51.326;-0.068;2023-04-06T03:00:47;0.10;;;0.10;;
69841;SDS011;57138;51.326;-0.068;2023-04-06T03:03:13;0.10;;;0.10;;
69841;SDS011;57138;51.326;-0.068;2023-04-06T03:05:38;0.20;;;0.20;;
69841;SDS011;57138;51.326;-0.068;2023-04-06T03:08:04;0.15;;;0.15;;
69841;SDS011;57138;51.326;-0.068;2023-04-06T03:10:29;0.10;;;0.10;;
69841;SDS011;57138;51.326;-0.068;2023-04-06T03:12:55;0.10;;;0.10;;
69841;SDS011;57138;51.326;-0.068;2023-04-06T03:15:20;0.10;;;0.10;;
69841;SDS011;57138;51.326;-0.068;2023-04-06T03:17:45;0.10;;;0.10;;
69841;SDS011;57138;51.326;-0.068;2023-04-06T03:20:11;0.10;;;0.10;;
69841;SDS011;57138;51.326;-0.068;2023-04-06T03:22:36;0.10;;;0.10;;
69841;SDS011;57138;51.326;-0.068;2023-04-06T03:25:02;0.10;;;0.10;;
69841;SDS011;57138;51.326;-0.068;2023-04-06T03:27:27;0.10;;;0.10;;
69841;SDS011;57138;51.326;-0.068;2023-04-06T03:29:53;0.10;;;0.10;;
69841;SDS011;57138;51.326;-0.068;2023-04-06T03:32:18;0.10;;;0.10;;
69841;SDS011;57138;51.326;-0.068;2023-04-06T03:34:44;0.10;;;0.10;;
69841;SDS011;57138;51.326;-0.068;2023-04-06T03:37:09;0.10;;;0.10;;
69841;SDS011;57138;51.326;-0.068;2023-04-06T03:39:35;0.13;;;0.13;;
69841;SDS011;57138;51.326;-0.068;2023-04-06T03:42:00;0.10;;;0.10;;
69841;SDS011;57138;51.326;-0.068;2023-04-06T03:44:25;0.10;;;0.10;;
69841;SDS011;57138;51.326;-0.068;2023-04-06T03:46:51;0.10;;;0.10;;
69841;SDS011;57138;51.326;-0.068;2023-04-06T03:49:16;0.10;;;0.10;;
69841;SDS011;57138;51.326;-0.068;2023-04-06T03:51:42;0.10;;;0.10;;
69841;SDS011;57138;51.326;-0.068;2023-04-06T03:54:07;0.10;;;0.10;;
69841;SDS011;57138;51.326;-0.068;2023-04-06T03:56:32;0.10;;;0.10;;
69841;SDS011;57138;51.326;-0.068;2023-04-06T03:58:58;0.10;;;0.10;;
69841;SDS011;57138;51.326;-0.068;2023-04-06T04:01:23;0.10;;;0.10;;
69841;SDS011;57138;51.326;-0.068;2023-04-06T04:03:48;0.10;;;0.10;;
69841;SDS011;57138;51.326;-0.068;2023-04-06T04:06:14;0.10;;;0.10;;
69841;SDS011;57138;51.326;-0.068;2023-04-06T04:08:40;0.10;;;0.10;;
69841;SDS011;57138;51.326;-0.068;2023-04-06T04:11:05;0.10;;;0.10;;
69841;SDS011;57138;51.326;-0.068;2023-04-06T04:13:30;1.95;;;0.73;;
69841;SDS011;57138;51.326;-0.068;2023-04-06T04:15:56;0.10;;;0.10;;
69841;SDS011;57138;51.326;-0.068;2023-04-06T04:18:21;0.10;;;0.10;;
69841;SDS011;57138;51.326;-0.068;2023-04-06T04:20:47;0.00;;;0.00;;
69841;SDS011;57138;51.326;-0.068;2023-04-06T04:23:12;0.10;;;0.10;;
69841;SDS011;57138;51.326;-0.068;2023-04-06T04:25:38;0.10;;;0.10;;
69841;SDS011;57138;51.326;-0.068;2023-04-06T04:28:03;0.10;;;0.10;;
69841;SDS011;57138;51.326;-0.068;2023-04-06T04:30:28;0.10;;;0.10;;
69841;SDS011;57138;51.326;-0.068;2023-04-06T04:32:54;0.10;;;0.10;;
69841;SDS011;57138;51.326;-0.068;2023-04-06T04:35:19;0.10;;;0.10;;
69841;SDS011;57138;51.326;-0.068;2023-04-06T04:37:45;0.10;;;0.10;;
69841;SDS011;57138;51.326;-0.068;2023-04-06T04:40:10;0.10;;;0.10;;
69841;SDS011;57138;51.326;-0.068;2023-04-06T04:42:36;0.10;;;0.10;;
69841;SDS011;57138;51.326;-0.068;2023-04-06T04:45:02;0.10;;;0.10;;
69841;SDS011;57138;51.326;-0.068;2023-04-06T04:47:27;0.10;;;0.10;;
69841;SDS011;57138;51.326;-0.068;2023-04-06T04:49:52;0.10;;;0.10;;
69841;SDS011;57138;51.326;-0.068;2023-04-06T04:52:18;0.10;;;0.10;;
69841;SDS011;57138;51.326;-0.068;2023-04-06T04:54:45;0.10;;;0.10;;
69841;SDS011;57138;51.326;-0.068;2023-04-06T04:57:12;0.10;;;0.10;;
69841;SDS011;57138;51.326;-0.068;2023-04-06T04:59:37;0.10;;;0.10;;
69841;SDS011;57138;51.326;-0.068;2023-04-06T05:02:03;0.10;;;0.10;;
69841;SDS011;57138;51.326;-0.068;2023-04-06T05:04:28;0.10;;;0.10;;
69841;SDS011;57138;51.326;-0.068;2023-04-06T05:07:06;0.10;;;0.10;;
69841;SDS011;57138;51.326;-0.068;2023-04-06T05:09:33;0.10;;;0.10;;
69841;SDS011;57138;51.326;-0.068;2023-04-06T05:11:58;0.10;;;0.10;;
69841;SDS011;57138;51.326;-0.068;2023-04-06T05:14:25;0.10;;;0.10;;
69841;SDS011;57138;51.326;-0.068;2023-04-06T05:16:51;0.10;;;0.10;;
69841;SDS011;57138;51.326;-0.068;2023-04-06T05:19:16;0.10;;;0.10;;
69841;SDS011;57138;51.326;-0.068;2023-04-06T05:21:42;0.63;;;0.63;;
69841;SDS011;57138;51.326;-0.068;2023-04-06T05:24:07;0.10;;;0.10;;
69841;SDS011;57138;51.326;-0.068;2023-04-06T05:26:33;0.10;;;0.10;;
69841;SDS011;57138;51.326;-0.068;2023-04-06T05:28:59;0.10;;;0.10;;
69841;SDS011;57138;51.326;-0.068;2023-04-06T05:31:24;0.10;;;0.10;;
69841;SDS011;57138;51.326;-0.068;2023-04-06T05:33:50;0.10;;;0.10;;
69841;SDS011;57138;51.326;-0.068;2023-04-06T05:36:15;0.10;;;0.10;;
69841;SDS011;57138;51.326;-0.068;2023-04-06T05:38:41;0.10;;;0.10;;
69841;SDS011;57138;51.326;-0.068;2023-04-06T05:41:06;0.10;;;0.10;;
69841;SDS011;57138;51.326;-0.068;2023-04-06T05:43:31;0.10;;;0.10;;
69841;SDS011;57138;51.326;-0.068;2023-04-06T05:45:57;0.55;;;0.55;;
69841;SDS011;57138;51.326;-0.068;2023-04-06T05:48:22;0.40;;;0.40;;
69841;SDS011;57138;51.326;-0.068;2023-04-06T05:50:48;0.10;;;0.10;;
69841;SDS011;57138;51.326;-0.068;2023-04-06T05:53:18;0.10;;;0.10;;
69841;SDS011;57138;51.326;-0.068;2023-04-06T05:55:45;0.10;;;0.10;;
69841;SDS011;57138;51.326;-0.068;2023-04-06T05:58:20;0.10;;;0.10;;
69841;SDS011;57138;51.326;-0.068;2023-04-06T06:00:45;0.10;;;0.10;;
69841;SDS011;57138;51.326;-0.068;2023-04-06T06:03:11;0.10;;;0.10;;
69841;SDS011;57138;51.326;-0.068;2023-04-06T06:05:37;0.10;;;0.10;;
69841;SDS011;57138;51.326;-0.068;2023-04-06T06:08:02;0.38;;;0.38;;
69841;SDS011;57138;51.326;-0.068;2023-04-06T06:10:28;0.10;;;0.10;;
69841;SDS011;57138;51.326;-0.068;2023-04-06T06:12:53;0.10;;;0.10;;
69841;SDS011;57138;51.326;-0.068;2023-04-06T06:15:19;0.10;;;0.10;;
69841;SDS011;57138;51.326;-0.068;2023-04-06T06:17:44;0.10;;;0.10;;
69841;SDS011;57138;51.326;-0.068;2023-04-06T06:20:10;0.10;;;0.10;;
69841;SDS011;57138;51.326;-0.068;2023-04-06T06:22:36;0.10;;;0.10;;
69841;SDS011;57138;51.326;-0.068;2023-04-06T06:25:02;0.10;;;0.10;;
69841;SDS011;57138;51.326;-0.068;2023-04-06T06:27:27;0.10;;;0.10;;
69841;SDS011;57138;51.326;-0.068;2023-04-06T06:29:53;0.10;;;0.10;;
69841;SDS011;57138;51.326;-0.068;2023-04-06T06:32:18;0.10;;;0.10;;
69841;SDS011;57138;51.326;-0.068;2023-04-06T06:34:44;0.10;;;0.10;;
69841;SDS011;57138;51.326;-0.068;2023-04-06T06:37:09;0.10;;;0.10;;
69841;SDS011;57138;51.326;-0.068;2023-04-06T06:39:35;0.10;;;0.10;;
69841;SDS011;57138;51.326;-0.068;2023-04-06T06:42:00;0.10;;;0.10;;
69841;SDS011;57138;51.326;-0.068;2023-04-06T06:44:26;0.10;;;0.10;;
69841;SDS011;57138;51.326;-0.068;2023-04-06T06:46:52;0.10;;;0.10;;
69841;SDS011;57138;51.326;-0.068;2023-04-06T06:49:17;0.10;;;0.10;;
69841;SDS011;57138;51.326;-0.068;2023-04-06T06:51:44;0.10;;;0.10;;
69841;SDS011;57138;51.326;-0.068;2023-04-06T06:54:10;0.10;;;0.10;;
69841;SDS011;57138;51.326;-0.068;2023-04-06T06:56:36;0.10;;;0.10;;
69841;SDS011;57138;51.326;-0.068;2023-04-06T06:59:03;0.10;;;0.10;;
69841;SDS011;57138;51.326;-0.068;2023-04-06T07:01:29;0.10;;;0.10;;
69841;SDS011;57138;51.326;-0.068;2023-04-06T07:03:56;0.10;;;0.10;;
69841;SDS011;57138;51.326;-0.068;2023-04-06T07:06:21;0.10;;;0.10;;
69841;SDS011;57138;51.326;-0.068;2023-04-06T07:08:47;0.10;;;0.10;;
69841;SDS011;57138;51.326;-0.068;2023-04-06T07:11:12;0.10;;;0.10;;
69841;SDS011;57138;51.326;-0.068;2023-04-06T07:13:38;0.10;;;0.10;;
69841;SDS011;57138;51.326;-0.068;2023-04-06T07:16:03;0.10;;;0.10;;
69841;SDS011;57138;51.326;-0.068;2023-04-06T07:18:29;0.10;;;0.10;;
69841;SDS011;57138;51.326;-0.068;2023-04-06T07:20:54;0.10;;;0.10;;
69841;SDS011;57138;51.326;-0.068;2023-04-06T07:23:20;0.10;;;0.10;;
69841;SDS011;57138;51.326;-0.068;2023-04-06T07:25:45;0.10;;;0.10;;
69841;SDS011;57138;51.326;-0.068;2023-04-06T07:28:11;0.10;;;0.10;;
69841;SDS011;57138;51.326;-0.068;2023-04-06T07:30:37;0.10;;;0.10;;
69841;SDS011;57138;51.326;-0.068;2023-04-06T07:33:02;0.10;;;0.10;;
69841;SDS011;57138;51.326;-0.068;2023-04-06T07:35:28;0.10;;;0.10;;
69841;SDS011;57138;51.326;-0.068;2023-04-06T07:38:01;0.10;;;0.10;;
69841;SDS011;57138;51.326;-0.068;2023-04-06T07:40:27;0.25;;;0.25;;
69841;SDS011;57138;51.326;-0.068;2023-04-06T07:42:52;0.10;;;0.10;;
69841;SDS011;57138;51.326;-0.068;2023-04-06T07:45:18;0.10;;;0.10;;
69841;SDS011;57138;51.326;-0.068;2023-04-06T07:47:44;0.10;;;0.10;;
69841;SDS011;57138;51.326;-0.068;2023-04-06T07:50:11;0.10;;;0.10;;
69841;SDS011;57138;51.326;-0.068;2023-04-06T07:52:36;0.10;;;0.10;;
69841;SDS011;57138;51.326;-0.068;2023-04-06T07:55:02;0.10;;;0.10;;
69841;SDS011;57138;51.326;-0.068;2023-04-06T07:57:27;0.10;;;0.10;;
69841;SDS011;57138;51.326;-0.068;2023-04-06T07:59:52;0.10;;;0.10;;
69841;SDS011;57138;51.326;-0.068;2023-04-06T08:02:18;0.20;;;0.20;;
69841;SDS011;57138;51.326;-0.068;2023-04-06T08:04:43;0.10;;;0.10;;
69841;SDS011;57138;51.326;-0.068;2023-04-06T08:07:09;0.10;;;0.10;;
69841;SDS011;57138;51.326;-0.068;2023-04-06T08:09:34;0.10;;;0.10;;
69841;SDS011;57138;51.326;-0.068;2023-04-06T08:12:00;0.10;;;0.10;;
69841;SDS011;57138;51.326;-0.068;2023-04-06T08:14:25;0.10;;;0.10;;
69841;SDS011;57138;51.326;-0.068;2023-04-06T08:16:50;0.10;;;0.10;;
69841;SDS011;57138;51.326;-0.068;2023-04-06T08:19:16;0.10;;;0.10;;
69841;SDS011;57138;51.326;-0.068;2023-04-06T08:21:43;0.10;;;0.10;;
69841;SDS011;57138;51.326;-0.068;2023-04-06T08:24:10;0.10;;;0.10;;
69841;SDS011;57138;51.326;-0.068;2023-04-06T08:26:36;0.10;;;0.10;;
69841;SDS011;57138;51.326;-0.068;2023-04-06T08:29:01;0.10;;;0.10;;
69841;SDS011;57138;51.326;-0.068;2023-04-06T08:31:29;0.10;;;0.10;;
69841;SDS011;57138;51.326;-0.068;2023-04-06T08:33:55;0.10;;;0.10;;
69841;SDS011;57138;51.326;-0.068;2023-04-06T08:36:21;0.10;;;0.10;;
69841;SDS011;57138;51.326;-0.068;2023-04-06T08:38:48;0.10;;;0.10;;
69841;SDS011;57138;51.326;-0.068;2023-04-06T08:41:14;0.10;;;0.10;;
69841;SDS011;57138;51.326;-0.068;2023-04-06T08:46:14;0.10;;;0.10;;
69841;SDS011;57138;51.326;-0.068;2023-04-06T08:48:40;0.10;;;0.10;;
69841;SDS011;57138;51.326;-0.068;2023-04-06T08:51:07;0.10;;;0.10;;
69841;SDS011;57138;51.326;-0.068;2023-04-06T08:53:35;0.10;;;0.10;;
69841;SDS011;57138;51.326;-0.068;2023-04-06T08:56:03;0.10;;;0.10;;
69841;SDS011;57138;51.326;-0.068;2023-04-06T08:58:32;0.10;;;0.10;;
69841;SDS011;57138;51.326;-0.068;2023-04-06T09:01:00;0.10;;;0.10;;
69841;SDS011;57138;51.326;-0.068;2023-04-06T09:03:28;0.10;;;0.10;;
69841;SDS011;57138;51.326;-0.068;2023-04-06T09:05:55;0.10;;;0.10;;
69841;SDS011;57138;51.326;-0.068;2023-04-06T09:08:21;0.10;;;0.10;;
69841;SDS011;57138;51.326;-0.068;2023-04-06T09:10:46;0.10;;;0.10;;
69841;SDS011;57138;51.326;-0.068;2023-04-06T09:13:14;1.15;;;1.10;;
69841;SDS011;57138;51.326;-0.068;2023-04-06T09:15:39;0.20;;;0.20;;
69841;SDS011;57138;51.326;-0.068;2023-04-06T09:18:05;0.10;;;0.10;;
69841;SDS011;57138;51.326;-0.068;2023-04-06T09:20:30;0.10;;;0.10;;
69841;SDS011;57138;51.326;-0.068;2023-04-06T09:22:56;0.10;;;0.10;;
69841;SDS011;57138;51.326;-0.068;2023-04-06T09:25:22;0.10;;;0.10;;
69841;SDS011;57138;51.326;-0.068;2023-04-06T09:27:49;0.10;;;0.10;;
69841;SDS011;57138;51.326;-0.068;2023-04-06T09:30:24;0.10;;;0.10;;
69841;SDS011;57138;51.326;-0.068;2023-04-06T09:32:54;0.10;;;0.10;;
69841;SDS011;57138;51.326;-0.068;2023-04-06T09:35:21;0.10;;;0.10;;
69841;SDS011;57138;51.326;-0.068;2023-04-06T09:37:48;0.10;;;0.10;;
69841;SDS011;57138;51.326;-0.068;2023-04-06T09:40:16;0.10;;;0.10;;
69841;SDS011;57138;51.326;-0.068;2023-04-06T09:42:48;0.38;;;0.38;;
69841;SDS011;57138;51.326;-0.068;2023-04-06T09:45:16;0.10;;;0.10;;
69841;SDS011;57138;51.326;-0.068;2023-04-06T09:47:43;0.10;;;0.10;;
69841;SDS011;57138;51.326;-0.068;2023-04-06T09:50:10;0.10;;;0.10;;
69841;SDS011;57138;51.326;-0.068;2023-04-06T09:52:40;0.10;;;0.10;;
69841;SDS011;57138;51.326;-0.068;2023-04-06T09:55:08;0.10;;;0.10;;
69841;SDS011;57138;51.326;-0.068;2023-04-06T09:57:44;0.10;;;0.10;;
69841;SDS011;57138;51.326;-0.068;2023-04-06T10:00:13;0.10;;;0.10;;
69841;SDS011;57138;51.326;-0.068;2023-04-06T10:02:58;0.10;;;0.10;;
69841;SDS011;57138;51.326;-0.068;2023-04-06T10:08:11;0.10;;;0.10;;
69841;SDS011;57138;51.326;-0.068;2023-04-06T10:10:38;0.10;;;0.10;;
69841;SDS011;57138;51.326;-0.068;2023-04-06T10:13:04;0.10;;;0.10;;
69841;SDS011;57138;51.326;-0.068;2023-04-06T10:15:31;0.20;;;0.20;;
69841;SDS011;57138;51.326;-0.068;2023-04-06T10:17:57;0.10;;;0.10;;
69841;SDS011;57138;51.326;-0.068;2023-04-06T10:21:10;0.10;;;0.10;;
69841;SDS011;57138;51.326;-0.068;2023-04-06T10:25:59;0.10;;;0.10;;
69841;SDS011;57138;51.326;-0.068;2023-04-06T10:28:30;0.10;;;0.10;;
69841;SDS011;57138;51.326;-0.068;2023-04-06T10:30:58;0.10;;;0.10;;
69841;SDS011;57138;51.326;-0.068;2023-04-06T10:33:25;0.10;;;0.10;;
69841;SDS011;57138;51.326;-0.068;2023-04-06T10:35:52;0.10;;;0.10;;
69841;SDS011;57138;51.326;-0.068;2023-04-06T10:38:18;0.10;;;0.10;;
69841;SDS011;57138;51.326;-0.068;2023-04-06T10:40:49;0.10;;;0.10;;
69841;SDS011;57138;51.326;-0.068;2023-04-06T10:43:18;0.20;;;0.20;;
69841;SDS011;57138;51.326;-0.068;2023-04-06T10:45:52;0.10;;;0.10;;
69841;SDS011;57138;51.326;-0.068;2023-04-06T10:48:20;0.10;;;0.10;;
69841;SDS011;57138;51.326;-0.068;2023-04-06T10:50:47;0.10;;;0.10;;
69841;SDS011;57138;51.326;-0.068;2023-04-06T10:53:23;0.10;;;0.10;;
69841;SDS011;57138;51.326;-0.068;2023-04-06T10:55:51;0.10;;;0.10;;
69841;SDS011;57138;51.326;-0.068;2023-04-06T10:58:19;0.10;;;0.10;;
69841;SDS011;57138;51.326;-0.068;2023-04-06T11:00:45;0.10;;;0.10;;
69841;SDS011;57138;51.326;-0.068;2023-04-06T11:03:13;0.10;;;0.10;;
69841;SDS011;57138;51.326;-0.068;2023-04-06T11:05:43;0.10;;;0.10;;
69841;SDS011;57138;51.326;-0.068;2023-04-06T11:08:25;0.10;;;0.10;;
69841;SDS011;57138;51.326;-0.068;2023-04-06T11:10:52;0.10;;;0.10;;
69841;SDS011;57138;51.326;-0.068;2023-04-06T11:13:41;0.10;;;0.10;;
69841;SDS011;57138;51.326;-0.068;2023-04-06T11:16:15;0.10;;;0.10;;
69841;SDS011;57138;51.326;-0.068;2023-04-06T11:18:52;0.10;;;0.10;;
69841;SDS011;57138;51.326;-0.068;2023-04-06T11:21:36;0.10;;;0.10;;
69841;SDS011;57138;51.326;-0.068;2023-04-06T11:24:19;0.10;;;0.10;;
69841;SDS011;57138;51.326;-0.068;2023-04-06T11:26:50;0.10;;;0.10;;
69841;SDS011;57138;51.326;-0.068;2023-04-06T11:29:23;0.10;;;0.10;;
69841;SDS011;57138;51.326;-0.068;2023-04-06T11:31:52;0.10;;;0.10;;
69841;SDS011;57138;51.326;-0.068;2023-04-06T11:34:20;0.10;;;0.10;;
69841;SDS011;57138;51.326;-0.068;2023-04-06T11:36:48;0.20;;;0.20;;
69841;SDS011;57138;51.326;-0.068;2023-04-06T11:39:19;0.10;;;0.10;;
69841;SDS011;57138;51.326;-0.068;2023-04-06T11:41:50;0.10;;;0.10;;
69841;SDS011;57138;51.326;-0.068;2023-04-06T11:44:31;0.10;;;0.10;;
69841;SDS011;57138;51.326;-0.068;2023-04-06T11:46:57;0.10;;;0.10;;
69841;SDS011;57138;51.326;-0.068;2023-04-06T11:49:26;0.10;;;0.10;;
69841;SDS011;57138;51.326;-0.068;2023-04-06T11:51:53;0.10;;;0.10;;
69841;SDS011;57138;51.326;-0.068;2023-04-06T11:54:40;0.10;;;0.10;;
69841;SDS011;57138;51.326;-0.068;2023-04-06T11:57:10;0.10;;;0.10;;
69841;SDS011;57138;51.326;-0.068;2023-04-06T11:59:36;0.10;;;0.10;;
69841;SDS011;57138;51.326;-0.068;2023-04-06T12:02:02;0.10;;;0.10;;
69841;SDS011;57138;51.326;-0.068;2023-04-06T12:04:28;0.10;;;0.10;;
69841;SDS011;57138;51.326;-0.068;2023-04-06T12:06:54;0.20;;;0.20;;
69841;SDS011;57138;51.326;-0.068;2023-04-06T12:09:20;0.10;;;0.10;;
69841;SDS011;57138;51.326;-0.068;2023-04-06T12:11:46;0.10;;;0.10;;
69841;SDS011;57138;51.326;-0.068;2023-04-06T12:14:12;0.10;;;0.10;;
69841;SDS011;57138;51.326;-0.068;2023-04-06T12:16:37;0.10;;;0.10;;
69841;SDS011;57138;51.326;-0.068;2023-04-06T12:19:03;0.10;;;0.10;;
69841;SDS011;57138;51.326;-0.068;2023-04-06T12:21:35;0.10;;;0.10;;
69841;SDS011;57138;51.326;-0.068;2023-04-06T12:24:04;0.10;;;0.10;;
69841;SDS011;57138;51.326;-0.068;2023-04-06T12:26:31;0.10;;;0.10;;
69841;SDS011;57138;51.326;-0.068;2023-04-06T12:28:58;0.10;;;0.10;;
69841;SDS011;57138;51.326;-0.068;2023-04-06T12:31:37;0.10;;;0.10;;
69841;SDS011;57138;51.326;-0.068;2023-04-06T12:34:07;0.20;;;0.20;;
69841;SDS011;57138;51.326;-0.068;2023-04-06T12:36:33;0.10;;;0.10;;
69841;SDS011;57138;51.326;-0.068;2023-04-06T12:38:59;0.10;;;0.10;;
69841;SDS011;57138;51.326;-0.068;2023-04-06T12:41:25;0.10;;;0.10;;
69841;SDS011;57138;51.326;-0.068;2023-04-06T12:43:51;0.10;;;0.10;;
69841;SDS011;57138;51.326;-0.068;2023-04-06T12:46:17;0.10;;;0.10;;
69841;SDS011;57138;51.326;-0.068;2023-04-06T12:48:42;0.10;;;0.10;;
69841;SDS011;57138;51.326;-0.068;2023-04-06T12:51:08;0.10;;;0.10;;
69841;SDS011;57138;51.326;-0.068;2023-04-06T12:53:33;0.10;;;0.10;;
69841;SDS011;57138;51.326;-0.068;2023-04-06T12:56:00;0.10;;;0.10;;
69841;SDS011;57138;51.326;-0.068;2023-04-06T12:58:27;0.10;;;0.10;;
69841;SDS011;57138;51.326;-0.068;2023-04-06T13:00:53;0.10;;;0.10;;
69841;SDS011;57138;51.326;-0.068;2023-04-06T13:03:21;0.10;;;0.10;;
69841;SDS011;57138;51.326;-0.068;2023-04-06T13:05:47;0.10;;;0.10;;
69841;SDS011;57138;51.326;-0.068;2023-04-06T13:08:14;0.10;;;0.10;;
69841;SDS011;57138;51.326;-0.068;2023-04-06T13:10:44;0.10;;;0.10;;
69841;SDS011;57138;51.326;-0.068;2023-04-06T13:13:14;0.10;;;0.10;;
69841;SDS011;57138;51.326;-0.068;2023-04-06T13:15:41;0.10;;;0.10;;
69841;SDS011;57138;51.326;-0.068;2023-04-06T13:18:07;0.10;;;0.10;;
69841;SDS011;57138;51.326;-0.068;2023-04-06T13:20:34;0.10;;;0.10;;
69841;SDS011;57138;51.326;-0.068;2023-04-06T13:23:01;0.10;;;0.10;;
69841;SDS011;57138;51.326;-0.068;2023-04-06T13:25:26;0.10;;;0.10;;
69841;SDS011;57138;51.326;-0.068;2023-04-06T13:27:53;0.10;;;0.10;;
69841;SDS011;57138;51.326;-0.068;2023-04-06T13:30:19;0.10;;;0.10;;
69841;SDS011;57138;51.326;-0.068;2023-04-06T13:32:45;0.10;;;0.10;;
69841;SDS011;57138;51.326;-0.068;2023-04-06T13:35:10;0.10;;;0.10;;
69841;SDS011;57138;51.326;-0.068;2023-04-06T13:37:36;0.10;;;0.10;;
69841;SDS011;57138;51.326;-0.068;2023-04-06T13:40:03;0.10;;;0.10;;
69841;SDS011;57138;51.326;-0.068;2023-04-06T13:42:29;5.18;;;1.00;;
69841;SDS011;57138;51.326;-0.068;2023-04-06T13:44:55;10.15;;;2.13;;
69841;SDS011;57138;51.326;-0.068;2023-04-06T13:47:21;16.25;;;2.72;;
69841;SDS011;57138;51.326;-0.068;2023-04-06T13:49:47;5.47;;;1.48;;
69841;SDS011;57138;51.326;-0.068;2023-04-06T13:52:12;6.97;;;2.15;;
69841;SDS011;57138;51.326;-0.068;2023-04-06T13:54:38;4.10;;;1.13;;
69841;SDS011;57138;51.326;-0.068;2023-04-06T13:57:04;5.15;;;0.90;;
69841;SDS011;57138;51.326;-0.068;2023-04-06T13:59:33;7.53;;;1.30;;
69841;SDS011;57138;51.326;-0.068;2023-04-06T14:02:00;5.22;;;1.30;;
69841;SDS011;57138;51.326;-0.068;2023-04-06T14:04:27;6.82;;;1.02;;
69841;SDS011;57138;51.326;-0.068;2023-04-06T14:06:53;12.00;;;2.17;;
69841;SDS011;57138;51.326;-0.068;2023-04-06T14:09:18;3.70;;;1.00;;
69841;SDS011;57138;51.326;-0.068;2023-04-06T14:11:44;3.45;;;1.10;;
69841;SDS011;57138;51.326;-0.068;2023-04-06T14:14:09;4.40;;;0.82;;
69841;SDS011;57138;51.326;-0.068;2023-04-06T14:16:35;5.53;;;1.00;;
69841;SDS011;57138;51.326;-0.068;2023-04-06T14:19:02;4.05;;;0.95;;
69841;SDS011;57138;51.326;-0.068;2023-04-06T14:21:28;4.32;;;1.23;;
69841;SDS011;57138;51.326;-0.068;2023-04-06T14:23:53;5.88;;;1.25;;
69841;SDS011;57138;51.326;-0.068;2023-04-06T14:26:20;6.28;;;1.42;;
69841;SDS011;57138;51.326;-0.068;2023-04-06T14:28:45;4.68;;;1.08;;
69841;SDS011;57138;51.326;-0.068;2023-04-06T14:31:12;4.38;;;1.10;;
69841;SDS011;57138;51.326;-0.068;2023-04-06T14:33:39;10.75;;;2.17;;
69841;SDS011;57138;51.326;-0.068;2023-04-06T14:36:06;4.93;;;1.30;;
69841;SDS011;57138;51.326;-0.068;2023-04-06T14:38:32;5.72;;;1.45;;